createdAt,value
2023-05-21T00:00:45.465Z,3.38
2023-05-21T00:03:16.370Z,3.60
2023-05-21T00:05:47.176Z,3.45
2023-05-21T00:08:15.252Z,3.88
2023-05-21T00:10:44.414Z,3.92
2023-05-21T00:13:12.254Z,3.70
2023-05-21T00:15:40.150Z,3.93
2023-05-21T00:18:08.105Z,4.10
2023-05-21T00:20:37.127Z,3.90
2023-05-21T00:23:05.237Z,3.80
2023-05-21T00:25:33.232Z,4.18
2023-05-21T00:28:02.597Z,3.53
2023-05-21T00:30:30.587Z,3.95
2023-05-21T00:33:02.454Z,3.88
2023-05-21T00:35:30.597Z,3.67
2023-05-21T00:37:58.559Z,4.00
2023-05-21T00:40:26.313Z,4.10
2023-05-21T00:42:57.214Z,3.55
2023-05-21T00:45:26.585Z,3.63
2023-05-21T00:47:55.567Z,3.78
2023-05-21T00:50:24.251Z,4.20
2023-05-21T00:52:52.113Z,3.70
2023-05-21T00:55:20.084Z,3.95
2023-05-21T00:57:49.435Z,4.50
2023-05-21T01:00:17.689Z,4.15
2023-05-21T01:02:47.540Z,4.43
2023-05-21T01:05:16.203Z,5.00
2023-05-21T01:07:44.278Z,4.50
2023-05-21T01:10:13.011Z,3.70
2023-05-21T01:12:43.784Z,4.10
2023-05-21T01:15:13.020Z,4.30
2023-05-21T01:17:41.472Z,3.83
2023-05-21T01:20:11.810Z,4.22
2023-05-21T01:22:45.192Z,4.25
2023-05-21T01:25:15.029Z,4.32
2023-05-21T01:27:42.893Z,4.65
2023-05-21T01:30:12.149Z,4.10
2023-05-21T01:32:46.227Z,4.10
2023-05-21T01:35:18.425Z,4.50
2023-05-21T01:37:52.528Z,4.10
2023-05-21T01:40:26.664Z,4.43
2023-05-21T01:42:54.588Z,4.50
2023-05-21T01:45:24.953Z,4.20
2023-05-21T01:47:55.674Z,4.22
2023-05-21T01:50:24.824Z,4.30
2023-05-21T01:52:54.241Z,4.43
2023-05-21T01:55:25.411Z,4.20
2023-05-21T01:57:53.845Z,4.50
2023-05-21T02:00:22.712Z,4.40
2023-05-21T02:02:50.819Z,4.68
2023-05-21T02:05:19.322Z,4.70
2023-05-21T02:07:48.606Z,4.50
2023-05-21T02:10:16.524Z,4.60
2023-05-21T02:12:45.956Z,4.15
2023-05-21T02:15:14.390Z,4.40
2023-05-21T02:17:42.517Z,4.82
2023-05-21T02:20:13.932Z,4.53
2023-05-21T02:22:42.969Z,4.70
2023-05-21T02:25:12.648Z,4.50
2023-05-21T02:27:42.457Z,4.25
2023-05-21T02:30:13.724Z,4.40
2023-05-21T02:32:43.244Z,4.40
2023-05-21T02:35:12.905Z,4.70
2023-05-21T02:37:41.573Z,4.97
2023-05-21T02:40:10.786Z,4.32
2023-05-21T02:42:40.449Z,4.32
2023-05-21T02:45:12.885Z,4.47
2023-05-21T02:47:43.346Z,4.32
2023-05-21T02:50:11.372Z,5.00
2023-05-21T02:52:50.542Z,4.50
2023-05-21T02:55:18.358Z,5.03
2023-05-21T02:57:46.151Z,4.20
2023-05-21T03:00:16.807Z,4.35
2023-05-21T03:02:45.495Z,4.60
2023-05-21T03:05:13.471Z,4.25
2023-05-21T03:07:41.857Z,4.68
2023-05-21T03:10:10.353Z,4.37
2023-05-21T03:12:38.274Z,4.60
2023-05-21T03:15:06.756Z,4.80
2023-05-21T03:17:36.118Z,4.55
2023-05-21T03:20:05.823Z,4.20
2023-05-21T03:22:33.964Z,4.63
2023-05-21T03:25:02.705Z,4.28
2023-05-21T03:27:30.581Z,4.10
2023-05-21T03:30:06.655Z,4.03
2023-05-21T03:32:45.138Z,4.35
2023-05-21T03:35:13.323Z,4.40
2023-05-21T03:37:41.058Z,5.00
2023-05-21T03:40:10.600Z,4.47
2023-05-21T03:42:38.442Z,4.72
2023-05-21T03:45:07.951Z,4.25
2023-05-21T03:47:56.115Z,4.97
2023-05-21T03:50:24.042Z,4.30
2023-05-21T03:52:51.846Z,4.20
2023-05-21T03:55:19.719Z,4.70
2023-05-21T03:57:47.512Z,4.07
2023-05-21T04:00:16.593Z,4.30
2023-05-21T04:02:44.444Z,4.22
2023-05-21T04:05:17.388Z,4.38
2023-05-21T04:07:47.222Z,4.07
2023-05-21T04:10:15.014Z,4.30
2023-05-21T04:12:43.217Z,4.07
2023-05-21T04:15:12.474Z,4.25
2023-05-21T04:17:40.452Z,4.50
2023-05-21T04:20:09.459Z,4.40
2023-05-21T04:22:38.859Z,4.30
2023-05-21T04:25:07.088Z,4.43
2023-05-21T04:27:38.585Z,4.22
2023-05-21T04:30:07.845Z,3.78
2023-05-21T04:32:38.557Z,4.15
2023-05-21T04:35:10.153Z,3.65
2023-05-21T04:37:42.091Z,3.97
2023-05-21T04:40:11.196Z,4.38
2023-05-21T04:42:39.138Z,4.40
2023-05-21T04:45:07.903Z,4.00
2023-05-21T04:47:39.368Z,4.10
2023-05-21T04:50:08.584Z,4.87
2023-05-21T04:52:36.909Z,4.28
2023-05-21T04:55:07.865Z,4.28
2023-05-21T04:57:36.244Z,4.18
2023-05-21T05:00:06.471Z,4.07
2023-05-21T05:02:40.164Z,4.13
2023-05-21T05:05:08.410Z,4.22
2023-05-21T05:07:37.140Z,4.30
2023-05-21T05:10:07.334Z,3.92
2023-05-21T05:12:35.102Z,4.00
2023-05-21T05:15:03.303Z,3.70
2023-05-21T05:17:31.404Z,4.30
2023-05-21T05:19:59.708Z,4.13
2023-05-21T05:22:28.167Z,3.80
2023-05-21T05:24:56.049Z,4.03
2023-05-21T05:27:25.697Z,3.50
2023-05-21T05:29:53.804Z,4.57
2023-05-21T05:32:21.702Z,3.80
2023-05-21T05:34:49.632Z,4.38
2023-05-21T05:37:17.556Z,4.43
2023-05-21T05:39:45.390Z,5.03
2023-05-21T05:42:13.178Z,4.43
2023-05-21T05:44:42.345Z,4.57
2023-05-21T05:47:10.966Z,4.82
2023-05-21T05:49:40.597Z,4.70
2023-05-21T05:52:08.485Z,4.60
2023-05-21T05:54:36.319Z,5.00
2023-05-21T05:57:04.210Z,4.30
2023-05-21T05:59:33.816Z,4.90
2023-05-21T06:02:03.917Z,4.90
2023-05-21T06:04:32.727Z,4.70
2023-05-21T06:07:00.970Z,4.78
2023-05-21T06:09:28.900Z,4.57
2023-05-21T06:11:57.094Z,4.88
2023-05-21T06:14:24.968Z,4.50
2023-05-21T06:16:53.218Z,4.87
2023-05-21T06:19:23.155Z,4.38
2023-05-21T06:21:51.270Z,4.38
2023-05-21T06:24:19.035Z,4.90
2023-05-21T06:26:46.904Z,5.05
2023-05-21T06:29:17.064Z,4.20
2023-05-21T06:31:46.816Z,4.25
2023-05-21T06:34:14.655Z,4.60
2023-05-21T06:36:43.808Z,4.45
2023-05-21T06:39:12.094Z,4.70
2023-05-21T06:41:39.936Z,4.63
2023-05-21T06:44:25.197Z,4.85
2023-05-21T06:47:07.786Z,4.90
2023-05-21T06:49:36.371Z,4.53
2023-05-21T06:52:06.531Z,4.43
2023-05-21T06:54:34.781Z,4.40
2023-05-21T06:57:02.678Z,4.45
2023-05-21T06:59:32.256Z,4.07
2023-05-21T07:02:02.380Z,4.90
2023-05-21T07:04:32.043Z,4.00
2023-05-21T07:07:00.102Z,3.93
2023-05-21T07:09:29.895Z,4.45
2023-05-21T07:11:57.937Z,4.30
2023-05-21T07:14:26.184Z,3.97
2023-05-21T07:16:54.025Z,4.20
2023-05-21T07:19:21.942Z,3.87
2023-05-21T07:21:50.573Z,3.83
2023-05-21T07:24:18.453Z,4.00
2023-05-21T07:26:47.618Z,4.00
2023-05-21T07:29:15.604Z,3.80
2023-05-21T07:31:43.454Z,3.97
2023-05-21T07:34:12.124Z,3.75
2023-05-21T07:36:41.656Z,4.28
2023-05-21T07:39:09.612Z,3.63
2023-05-21T07:41:38.670Z,4.28
2023-05-21T07:44:11.453Z,4.53
2023-05-21T07:46:42.859Z,4.05
2023-05-21T07:49:16.714Z,4.03
2023-05-21T07:51:49.057Z,4.95
2023-05-21T07:54:17.165Z,4.50
2023-05-21T07:56:45.844Z,4.37
2023-05-21T07:59:27.699Z,3.53
2023-05-21T08:01:57.109Z,4.40
2023-05-21T08:04:25.307Z,3.70
2023-05-21T08:06:53.727Z,3.92
2023-05-21T08:09:21.699Z,4.00
2023-05-21T08:11:49.608Z,4.65
2023-05-21T08:14:17.545Z,4.30
2023-05-21T08:16:47.331Z,4.03
2023-05-21T08:19:15.346Z,4.07
2023-05-21T08:21:43.160Z,4.07
2023-05-21T08:24:12.496Z,4.65
2023-05-21T08:26:40.687Z,4.40
2023-05-21T08:29:08.485Z,4.47
2023-05-21T08:31:36.662Z,4.60
2023-05-21T08:34:05.808Z,3.77
2023-05-21T08:36:46.034Z,4.00
2023-05-21T08:39:33.825Z,4.43
2023-05-21T08:42:10.047Z,4.45
2023-05-21T08:44:44.225Z,4.13
2023-05-21T08:47:16.368Z,3.97
2023-05-21T08:49:48.035Z,3.88
2023-05-21T08:52:16.511Z,4.00
2023-05-21T08:54:45.693Z,3.80
2023-05-21T08:57:15.914Z,4.07
2023-05-21T08:59:45.114Z,4.50
2023-05-21T09:02:22.257Z,3.97
2023-05-21T09:04:57.018Z,4.30
2023-05-21T09:07:29.159Z,4.13
2023-05-21T09:10:19.535Z,4.25
2023-05-21T09:12:48.904Z,4.03
2023-05-21T09:15:17.056Z,4.13
2023-05-21T09:17:47.787Z,3.88
2023-05-21T09:20:53.554Z,4.13
2023-05-21T09:23:22.495Z,3.80
2023-05-21T09:25:52.039Z,4.27
2023-05-21T09:28:31.907Z,4.47
2023-05-21T09:31:04.534Z,3.83
2023-05-21T09:33:32.648Z,4.20
2023-05-21T09:36:02.057Z,4.20
2023-05-21T09:38:30.282Z,4.13
2023-05-21T09:40:58.294Z,3.78
2023-05-21T09:43:27.858Z,4.03
2023-05-21T09:46:00.479Z,3.88
2023-05-21T09:48:36.713Z,3.97
2023-05-21T09:51:14.663Z,4.03
2023-05-21T09:53:50.030Z,3.95
2023-05-21T09:56:20.097Z,3.95
2023-05-21T09:58:47.839Z,4.38
2023-05-21T10:01:15.608Z,3.92
2023-05-21T10:03:45.538Z,3.80
2023-05-21T10:06:16.244Z,3.60
2023-05-21T10:08:47.233Z,3.47
2023-05-21T10:11:16.832Z,3.97
2023-05-21T10:13:49.608Z,4.10
2023-05-21T10:16:18.812Z,4.07
2023-05-21T10:18:49.095Z,3.50
2023-05-21T10:21:18.735Z,3.50
2023-05-21T10:23:47.394Z,3.55
2023-05-21T10:26:15.512Z,4.00
2023-05-21T10:28:44.165Z,3.40
2023-05-21T10:31:12.879Z,3.63
2023-05-21T10:33:42.149Z,3.28
2023-05-21T10:36:10.447Z,3.65
2023-05-21T10:38:40.242Z,3.42
2023-05-21T10:41:09.225Z,4.37
2023-05-21T10:43:52.156Z,3.80
2023-05-21T10:46:41.645Z,3.72
2023-05-21T10:49:28.235Z,3.85
2023-05-21T10:52:04.612Z,3.63
2023-05-21T10:55:02.995Z,4.23
2023-05-21T10:58:03.342Z,3.88
2023-05-21T11:00:32.405Z,3.45
2023-05-21T11:03:01.788Z,3.63
2023-05-21T11:05:42.389Z,3.45
2023-05-21T11:08:23.914Z,3.90
2023-05-21T11:10:58.197Z,3.50
2023-05-21T11:13:27.625Z,3.28
2023-05-21T11:16:08.793Z,3.90
2023-05-21T11:19:02.337Z,3.92
2023-05-21T11:21:32.162Z,4.03
2023-05-21T11:24:06.404Z,3.70
2023-05-21T11:27:06.836Z,3.58
2023-05-21T11:29:44.216Z,4.10
2023-05-21T11:32:13.749Z,4.65
2023-05-21T11:34:43.586Z,4.03
2023-05-21T11:37:30.210Z,4.10
2023-05-21T11:40:00.244Z,4.05
2023-05-21T11:42:33.973Z,3.75
2023-05-21T11:45:04.088Z,3.53
2023-05-21T11:47:33.152Z,3.50
2023-05-21T11:50:02.918Z,3.10
2023-05-21T11:52:32.903Z,3.53
2023-05-21T11:55:01.149Z,3.50
2023-05-21T11:57:31.798Z,3.58
2023-05-21T12:00:02.300Z,4.60
2023-05-21T12:02:44.968Z,3.53
2023-05-21T12:05:13.332Z,3.35
2023-05-21T12:07:41.215Z,4.00
2023-05-21T12:10:09.969Z,3.72
2023-05-21T12:12:53.221Z,3.97
2023-05-21T12:15:24.922Z,3.60
2023-05-21T12:17:53.588Z,3.63
2023-05-21T12:20:21.906Z,3.30
2023-05-21T12:22:50.098Z,3.45
2023-05-21T12:25:20.243Z,3.13
2023-05-21T12:27:50.554Z,3.50
2023-05-21T12:30:18.500Z,3.25
2023-05-21T12:32:47.766Z,3.80
2023-05-21T12:35:23.483Z,3.40
2023-05-21T12:37:51.945Z,3.30
2023-05-21T12:40:20.725Z,2.92
2023-05-21T12:42:48.687Z,3.22
2023-05-21T12:45:18.772Z,2.85
2023-05-21T12:47:56.057Z,3.30
2023-05-21T12:50:24.709Z,3.10
2023-05-21T12:52:58.781Z,3.40
2023-05-21T12:55:27.116Z,3.30
2023-05-21T12:58:07.839Z,3.38
2023-05-21T13:00:36.313Z,3.42
2023-05-21T13:03:06.394Z,3.27
2023-05-21T13:05:34.674Z,3.00
2023-05-21T13:08:02.535Z,3.20
2023-05-21T13:10:30.394Z,2.85
2023-05-21T13:12:58.163Z,3.00
2023-05-21T13:15:25.856Z,3.20
2023-05-21T13:17:55.950Z,2.47
2023-05-21T13:20:27.511Z,3.13
2023-05-21T13:22:55.649Z,2.53
2023-05-21T13:25:24.799Z,3.22
2023-05-21T13:27:53.965Z,2.87
2023-05-21T13:30:22.749Z,3.10
2023-05-21T13:32:52.256Z,3.15
2023-05-21T13:35:20.422Z,2.90
2023-05-21T13:37:49.606Z,3.50
2023-05-21T13:40:18.003Z,3.50
2023-05-21T13:42:46.971Z,3.75
2023-05-21T13:45:17.024Z,3.17
2023-05-21T13:47:46.507Z,3.40
2023-05-21T13:50:18.075Z,2.78
2023-05-21T13:52:45.984Z,2.60
2023-05-21T13:55:15.901Z,2.80
2023-05-21T13:57:44.330Z,3.05
2023-05-21T14:00:15.361Z,2.60
2023-05-21T14:02:44.312Z,2.67
2023-05-21T14:05:12.752Z,2.60
2023-05-21T14:07:40.952Z,2.90
2023-05-21T14:10:09.890Z,3.17
2023-05-21T14:12:39.164Z,3.10
2023-05-21T14:15:08.037Z,2.75
2023-05-21T14:17:35.969Z,3.17
2023-05-21T14:20:03.811Z,3.00
2023-05-21T14:22:31.647Z,3.30
2023-05-21T14:24:59.531Z,2.85
2023-05-21T14:27:27.417Z,3.20
2023-05-21T14:29:56.626Z,3.00
2023-05-21T14:32:24.606Z,3.03
2023-05-21T14:34:52.581Z,3.20
2023-05-21T14:37:21.070Z,2.70
2023-05-21T14:39:49.118Z,3.33
2023-05-21T14:42:17.211Z,2.77
2023-05-21T14:44:45.082Z,3.33
2023-05-21T14:47:14.587Z,3.00
2023-05-21T14:49:42.620Z,2.78
2023-05-21T14:52:11.193Z,2.88
2023-05-21T14:54:38.985Z,2.80
2023-05-21T14:57:06.786Z,2.72
2023-05-21T14:59:34.577Z,2.80
2023-05-21T15:02:02.641Z,2.60
2023-05-21T15:04:31.866Z,2.83
2023-05-21T15:06:59.641Z,3.00
2023-05-21T15:09:27.378Z,3.15
2023-05-21T15:11:55.271Z,3.08
2023-05-21T15:14:23.026Z,3.03
2023-05-21T15:16:51.079Z,3.22
2023-05-21T15:19:19.002Z,2.90
2023-05-21T15:21:48.234Z,3.20
2023-05-21T15:24:15.997Z,2.85
2023-05-21T15:26:43.799Z,3.60
2023-05-21T15:29:11.509Z,3.58
2023-05-21T15:31:39.453Z,3.67
2023-05-21T15:34:07.256Z,3.45
2023-05-21T15:36:35.293Z,3.65
2023-05-21T15:39:05.958Z,3.45
2023-05-21T15:41:37.249Z,3.97
2023-05-21T15:44:05.735Z,3.87
2023-05-21T15:46:33.563Z,3.88
2023-05-21T15:49:01.421Z,4.40
2023-05-21T15:51:29.356Z,3.97
2023-05-21T15:53:57.219Z,3.88
2023-05-21T15:56:26.603Z,4.23
2023-05-21T15:58:54.399Z,4.22
2023-05-21T16:01:22.245Z,5.05
2023-05-21T16:03:50.442Z,4.55
2023-05-21T16:06:18.246Z,4.30
2023-05-21T16:08:46.284Z,5.20
2023-05-21T16:11:14.420Z,5.00
2023-05-21T16:13:43.769Z,4.88
2023-05-21T16:16:11.815Z,5.13
2023-05-21T16:18:39.747Z,4.78
2023-05-21T16:21:07.719Z,4.90
2023-05-21T16:23:38.382Z,4.90
2023-05-21T16:26:06.563Z,4.63
2023-05-21T16:28:34.723Z,5.22
2023-05-21T16:31:04.331Z,5.00
2023-05-21T16:33:32.114Z,5.20
2023-05-21T16:35:59.990Z,5.28
2023-05-21T16:38:27.872Z,5.05
2023-05-21T16:40:55.746Z,5.75
2023-05-21T16:43:23.657Z,5.57
2023-05-21T16:45:52.968Z,5.60
2023-05-21T16:48:22.266Z,5.85
2023-05-21T16:50:50.393Z,5.53
2023-05-21T16:53:18.334Z,5.85
2023-05-21T16:55:46.147Z,5.60
2023-05-21T16:58:14.230Z,5.83
2023-05-21T17:00:42.176Z,5.20
2023-05-21T17:03:10.097Z,5.95
2023-05-21T17:05:39.651Z,6.30
2023-05-21T17:08:08.618Z,5.78
2023-05-21T17:10:36.502Z,5.47
2023-05-21T17:13:17.685Z,5.88
2023-05-21T17:15:49.131Z,5.60
2023-05-21T17:18:17.039Z,5.93
2023-05-21T17:20:46.201Z,6.75
2023-05-21T17:23:14.071Z,5.90
2023-05-21T17:25:42.086Z,6.88
2023-05-21T17:28:10.121Z,6.03
2023-05-21T17:30:37.987Z,6.15
2023-05-21T17:33:06.498Z,6.57
2023-05-21T17:35:35.187Z,6.30
2023-05-21T17:38:04.544Z,6.20
2023-05-21T17:40:32.329Z,7.07
2023-05-21T17:43:00.192Z,6.75
2023-05-21T17:45:27.982Z,6.13
2023-05-21T17:47:58.929Z,6.50
2023-05-21T17:50:27.805Z,6.35
2023-05-21T17:52:55.678Z,6.22
2023-05-21T17:55:24.774Z,7.00
2023-05-21T17:57:52.614Z,6.63
2023-05-21T18:00:21.216Z,5.83
2023-05-21T18:02:49.099Z,6.78
2023-05-21T18:05:16.842Z,6.75
2023-05-21T18:07:44.688Z,6.75
2023-05-21T18:10:12.733Z,7.38
2023-05-21T18:12:42.413Z,6.27
2023-05-21T18:15:11.233Z,6.97
2023-05-21T18:17:39.074Z,6.57
2023-05-21T18:20:08.103Z,7.13
2023-05-21T18:22:36.635Z,6.95
2023-05-21T18:25:04.710Z,6.63
2023-05-21T18:27:32.462Z,6.32
2023-05-21T18:30:03.227Z,6.38
2023-05-21T18:32:32.586Z,6.65
2023-05-21T18:35:00.519Z,6.63
2023-05-21T18:37:29.272Z,6.67
2023-05-21T18:39:57.314Z,6.63
2023-05-21T18:42:25.065Z,6.85
2023-05-21T18:44:52.842Z,6.50
2023-05-21T18:47:22.719Z,7.05
2023-05-21T18:49:50.628Z,6.83
2023-05-21T18:52:18.475Z,6.38
2023-05-21T18:54:46.239Z,6.15
2023-05-21T18:57:14.245Z,6.18
2023-05-21T18:59:42.012Z,5.90
2023-05-21T19:02:10.698Z,5.87
2023-05-21T19:04:40.151Z,5.70
2023-05-21T19:07:08.017Z,6.50
2023-05-21T19:09:36.029Z,6.90
2023-05-21T19:12:04.027Z,6.47
2023-05-21T19:14:31.906Z,6.37
2023-05-21T19:16:59.719Z,6.93
2023-05-21T19:19:27.850Z,6.10
2023-05-21T19:21:57.289Z,6.45
2023-05-21T19:24:25.298Z,5.68
2023-05-21T19:26:53.104Z,6.20
2023-05-21T19:29:21.439Z,6.32
2023-05-21T19:31:49.453Z,6.07
2023-05-21T19:34:17.249Z,6.28
2023-05-21T19:36:52.808Z,6.75
2023-05-21T19:39:23.102Z,6.13
2023-05-21T19:41:51.620Z,6.70
2023-05-21T19:44:19.739Z,6.22
2023-05-21T19:46:48.595Z,7.05
2023-05-21T19:49:16.456Z,7.10
2023-05-21T19:51:44.311Z,6.67
2023-05-21T19:54:12.219Z,7.32
2023-05-21T19:56:41.490Z,7.10
2023-05-21T19:59:09.369Z,7.07
2023-05-21T20:01:39.439Z,7.47
2023-05-21T20:04:07.629Z,6.97
2023-05-21T20:06:35.855Z,7.35
2023-05-21T20:09:04.260Z,7.68
2023-05-21T20:11:32.084Z,7.38
2023-05-21T20:14:02.267Z,6.75
2023-05-21T20:16:30.584Z,7.67
2023-05-21T20:18:58.479Z,7.53
2023-05-21T20:21:26.373Z,7.53
2023-05-21T20:23:54.780Z,7.80
2023-05-21T20:26:23.158Z,8.02
2023-05-21T20:28:50.918Z,7.63
2023-05-21T20:31:20.281Z,7.95
2023-05-21T20:33:50.466Z,7.90
2023-05-21T20:36:18.537Z,7.32
2023-05-21T20:38:47.108Z,8.20
2023-05-21T20:41:14.927Z,7.73
2023-05-21T20:43:45.258Z,8.27
2023-05-21T20:46:13.561Z,8.73
2023-05-21T20:48:43.494Z,8.35
2023-05-21T20:51:12.147Z,7.65
2023-05-21T20:53:39.927Z,8.27
2023-05-21T20:56:09.092Z,9.15
2023-05-21T20:58:36.927Z,7.95
2023-05-21T21:01:04.876Z,8.00
2023-05-21T21:03:34.336Z,8.52
2023-05-21T21:06:05.774Z,8.33
2023-05-21T21:08:34.695Z,9.13
2023-05-21T21:11:02.572Z,8.00
2023-05-21T21:13:30.482Z,8.40
2023-05-21T21:15:58.409Z,7.75
2023-05-21T21:18:26.464Z,7.90
2023-05-21T21:20:54.409Z,7.47
2023-05-21T21:23:24.392Z,7.22
2023-05-21T21:25:52.407Z,7.22
2023-05-21T21:28:20.359Z,7.50
2023-05-21T21:30:48.303Z,7.73
2023-05-21T21:33:16.581Z,7.72
2023-05-21T21:35:44.529Z,7.32
2023-05-21T21:38:12.272Z,8.38
2023-05-21T21:40:41.463Z,7.72
2023-05-21T21:43:09.360Z,8.53
2023-05-21T21:45:37.097Z,8.05
2023-05-21T21:48:05.837Z,7.45
2023-05-21T21:50:33.688Z,7.78
2023-05-21T21:53:03.566Z,9.18
2023-05-21T21:55:31.424Z,8.63
2023-05-21T21:58:00.558Z,7.47
2023-05-21T22:00:28.522Z,7.50
2023-05-21T22:02:56.790Z,8.65
2023-05-21T22:05:24.642Z,8.10
2023-05-21T22:07:52.980Z,7.77
2023-05-21T22:10:21.261Z,8.38
2023-05-21T22:12:49.096Z,8.95
2023-05-21T22:15:24.922Z,8.18
2023-05-21T22:17:53.733Z,8.98
2023-05-21T22:20:22.948Z,8.70
2023-05-21T22:22:51.345Z,8.68
2023-05-21T22:25:20.277Z,9.20
2023-05-21T22:27:48.358Z,9.07
2023-05-21T22:30:16.162Z,9.15
2023-05-21T22:32:45.341Z,10.07
2023-05-21T22:35:13.514Z,10.05
2023-05-21T22:37:41.294Z,10.27
2023-05-21T22:40:10.444Z,9.30
2023-05-21T22:42:38.461Z,9.73
2023-05-21T22:45:07.456Z,10.00
2023-05-21T22:47:36.998Z,10.68
2023-05-21T22:50:07.215Z,8.85
2023-05-21T22:52:35.307Z,9.80
2023-05-21T22:55:03.473Z,9.50
2023-05-21T22:57:31.505Z,10.63
2023-05-21T22:59:59.334Z,10.00
2023-05-21T23:02:27.141Z,10.35
2023-05-21T23:04:54.972Z,8.85
2023-05-21T23:07:24.329Z,9.90
2023-05-21T23:09:52.219Z,10.57
2023-05-21T23:12:20.287Z,9.80
2023-05-21T23:14:48.109Z,9.75
2023-05-21T23:17:15.905Z,10.20
2023-05-21T23:19:43.676Z,10.55
2023-05-21T23:22:11.606Z,10.47
2023-05-21T23:24:40.736Z,10.27
2023-05-21T23:27:08.474Z,11.40
2023-05-21T23:29:36.205Z,11.38
2023-05-21T23:32:05.202Z,10.85
2023-05-21T23:34:33.167Z,11.27
2023-05-21T23:37:01.156Z,11.48
2023-05-21T23:39:29.830Z,12.07
2023-05-21T23:41:59.185Z,11.68
2023-05-21T23:44:27.041Z,11.13
2023-05-21T23:46:54.862Z,11.10
2023-05-21T23:49:22.610Z,11.52
2023-05-21T23:51:50.972Z,10.93
2023-05-21T23:54:18.944Z,10.73
2023-05-21T23:56:46.877Z,11.13
2023-05-21T23:59:18.372Z,10.53
